Hauptseite
METAR-TAF:

METAR-TAF

Flughäfen :

Flughafen Heringsdorf

Heringsdorf, Deutschland

Breite: 53-53N, Länge: 014-09E, Höhe: 28 m

Beobachtung

Neuester Wetterbericht von vor 21 Stunden und 4 Minuten, um 09:20 UTC
Wind 11 kt aus Nordost, variierte zwischen Nord und Ost/Nordost
Temperatur 19°C
Luftfeuchtigkeit 46%
Luftdruck 1023 hPa
Sichtweite 10 km oder mehr
keine Wolken unter 1500 m und keine Kumulonimbus oder Gewitterwolken

METAR: EDAH 230920Z 04011KT 010V070 CAVOK 19/07 Q1023

Zeit: 08:24 (06:24 UTC)

Prognose

Neuester Wetterbericht von vor 22 Stunden und 24 Minuten, um 08:00 UTC
Gültige Prognose vom 23 um 09 UTC bis 23 um 18 UTC
Wind 7 kt aus Nordost
Sichtweite 10 km oder mehr
keine Wolken unter 1500 m und keine Kumulonimbus oder Gewitterwolken
Übergehend zu
vom 23 um 09 UTC bis 23 um 11 UTC
Wind 12 kt aus Nord/Nordost

TAF: EDAH 230800Z 2309/2318 05007KT CAVOK BECMG 2309/2311 03012KT

Wetterbeobachtungen und Prognosen von mehr als 4000 Flughäfen (METAR und TAF Bericht).

Die verfügbaren Stationen werden durch gelbe und rote Markierungen auf der Karte dargestellt.

Führen Sie die Maus auf sie, um den Namen der Station zu sehen.

Darauf klicken, um die Beobachtung von Wetterbeobachtungen und Prognosen zu sehen.

Um die Karte zu ändern : klicken Sie auf den grünen Tasten mit einem schwarzen Kreuz Zum Vergrößern, auf den grünen Button mit einem Gedankenstrich zu verkleinern, oder auf die grünen Pfeile für benachbarte Karten.


METAR-TAF: